createdAt,value
2023-11-30T00:00:41.850Z,0.59
2023-11-30T00:03:08.475Z,0.51
2023-11-30T00:05:35.104Z,0.47
2023-11-30T00:08:01.736Z,0.45
2023-11-30T00:10:28.201Z,0.53
2023-11-30T00:12:59.881Z,0.53
2023-11-30T00:15:26.479Z,0.60
2023-11-30T00:17:53.290Z,0.62
2023-11-30T00:20:19.934Z,0.68
2023-11-30T00:22:48.050Z,0.77
2023-11-30T00:25:14.675Z,0.74
2023-11-30T00:27:41.139Z,0.67
2023-11-30T00:30:08.562Z,0.57
2023-11-30T00:32:36.941Z,0.62
2023-11-30T00:35:03.635Z,0.61
2023-11-30T00:37:30.160Z,0.62
2023-11-30T00:39:56.595Z,0.67
2023-11-30T00:42:23.351Z,0.74
2023-11-30T00:44:50.008Z,0.79
2023-11-30T00:47:16.644Z,0.81
2023-11-30T00:49:43.104Z,0.83
2023-11-30T00:52:09.591Z,0.83
2023-11-30T00:54:36.239Z,0.84
2023-11-30T00:57:02.970Z,0.83
2023-11-30T00:59:29.443Z,0.83
2023-11-30T01:01:55.897Z,0.80
2023-11-30T01:04:25.569Z,0.78
2023-11-30T01:06:52.299Z,0.78
2023-11-30T01:09:18.792Z,0.77
2023-11-30T01:11:45.315Z,0.74
2023-11-30T01:14:11.878Z,0.75
2023-11-30T01:16:38.531Z,0.75
2023-11-30T01:19:05.098Z,0.62
2023-11-30T01:21:32.221Z,0.45
2023-11-30T01:23:59.129Z,0.34
2023-11-30T01:26:25.930Z,0.23
2023-11-30T01:28:52.354Z,0.17
2023-11-30T01:31:19.026Z,0.12
2023-11-30T01:33:45.585Z,0.08
2023-11-30T01:36:12.206Z,0.14
2023-11-30T01:38:41.699Z,0.26
2023-11-30T01:41:08.658Z,0.28
2023-11-30T01:43:35.113Z,0.29
2023-11-30T01:46:04.564Z,0.35
2023-11-30T01:48:32.325Z,0.37
2023-11-30T01:50:59.507Z,0.39
2023-11-30T01:53:26.131Z,0.43
2023-11-30T01:55:52.842Z,0.44
2023-11-30T01:58:19.762Z,0.35
2023-11-30T02:00:48.715Z,0.24
2023-11-30T02:03:17.478Z,0.23
2023-11-30T02:05:44.003Z,0.30
2023-11-30T02:08:10.782Z,0.36
2023-11-30T02:10:37.423Z,0.44
2023-11-30T02:13:04.118Z,0.50
2023-11-30T02:15:30.674Z,0.54
2023-11-30T02:17:57.229Z,0.57
2023-11-30T02:20:23.760Z,0.59
2023-11-30T02:22:50.402Z,0.59
2023-11-30T02:25:17.107Z,0.56
2023-11-30T02:27:43.742Z,0.39
2023-11-30T02:30:13.107Z,0.35
2023-11-30T02:32:39.839Z,0.42
2023-11-30T02:35:06.870Z,0.44
2023-11-30T02:37:33.340Z,0.41
2023-11-30T02:39:59.864Z,0.34
2023-11-30T02:42:26.419Z,0.32
2023-11-30T02:44:55.765Z,0.24
2023-11-30T02:47:22.231Z,0.11
2023-11-30T02:49:48.851Z,0.06
2023-11-30T02:52:15.456Z,0.14
2023-11-30T02:54:41.916Z,0.20
2023-11-30T02:57:08.647Z,0.25
2023-11-30T02:59:35.462Z,0.20
2023-11-30T03:02:02.099Z,0.12
2023-11-30T03:04:28.810Z,0.10
2023-11-30T03:07:00.886Z,0.16
2023-11-30T03:09:27.480Z,0.09
2023-11-30T03:11:54.009Z,0.09
2023-11-30T03:14:20.635Z,0.19
2023-11-30T03:16:47.095Z,0.27
2023-11-30T03:19:17.089Z,0.30
2023-11-30T03:21:44.751Z,0.34
2023-11-30T03:24:11.743Z,0.37
2023-11-30T03:26:38.409Z,0.35
2023-11-30T03:29:04.959Z,0.37
2023-11-30T03:31:34.278Z,0.38
2023-11-30T03:34:02.000Z,0.39
2023-11-30T03:36:28.637Z,0.37
2023-11-30T03:38:57.091Z,0.37
2023-11-30T03:41:24.425Z,0.28
2023-11-30T03:43:51.295Z,0.13
2023-11-30T03:46:17.741Z,0.07
2023-11-30T03:48:44.337Z,0.06
2023-11-30T03:51:11.845Z,0.06
2023-11-30T03:53:38.533Z,0.14
2023-11-30T03:56:05.421Z,0.22
2023-11-30T03:58:32.035Z,0.27
2023-11-30T04:00:58.599Z,0.18
2023-11-30T04:03:25.050Z,0.09
2023-11-30T04:05:51.708Z,0.05
2023-11-30T04:08:18.654Z,0.04
2023-11-30T04:10:45.578Z,0.09
2023-11-30T04:13:12.267Z,0.19
2023-11-30T04:15:38.754Z,0.27
2023-11-30T04:18:05.567Z,0.29
2023-11-30T04:20:32.384Z,0.31
2023-11-30T04:22:58.889Z,0.29
2023-11-30T04:25:25.611Z,0.32
2023-11-30T04:27:52.078Z,0.34
2023-11-30T04:30:19.042Z,0.39
2023-11-30T04:32:45.687Z,0.42
2023-11-30T04:35:12.254Z,0.45
2023-11-30T04:37:38.734Z,0.48
2023-11-30T04:40:05.829Z,0.48
2023-11-30T04:42:32.387Z,0.47
2023-11-30T04:44:58.884Z,0.45
2023-11-30T04:47:26.134Z,0.47
2023-11-30T04:49:58.553Z,0.49
2023-11-30T04:52:24.978Z,0.51
2023-11-30T04:54:51.932Z,0.51
2023-11-30T04:57:18.712Z,0.50
2023-11-30T04:59:46.604Z,0.50
2023-11-30T05:02:13.188Z,0.50
2023-11-30T05:04:39.819Z,0.51
2023-11-30T05:07:06.537Z,0.53
2023-11-30T05:09:33.245Z,0.52
2023-11-30T05:12:03.024Z,0.51
2023-11-30T05:14:29.614Z,0.47
2023-11-30T05:16:56.295Z,0.45
2023-11-30T05:19:23.456Z,0.51
2023-11-30T05:21:49.957Z,0.56
2023-11-30T05:24:18.658Z,0.59
2023-11-30T05:26:45.255Z,0.62
2023-11-30T05:29:11.761Z,0.64
2023-11-30T05:31:38.375Z,0.63
2023-11-30T05:34:04.835Z,0.66
2023-11-30T05:36:31.500Z,0.65
2023-11-30T05:38:58.008Z,0.67
2023-11-30T05:41:27.539Z,0.59
2023-11-30T05:43:54.019Z,0.60
2023-11-30T05:46:20.914Z,0.57
2023-11-30T05:48:47.733Z,0.56
2023-11-30T05:51:14.747Z,0.56
2023-11-30T05:53:41.425Z,0.56
2023-11-30T05:56:12.372Z,0.56
2023-11-30T05:58:38.856Z,0.58
2023-11-30T06:01:05.730Z,0.60
2023-11-30T06:03:35.452Z,0.58
2023-11-30T06:06:02.075Z,0.59
2023-11-30T06:08:28.591Z,0.61
2023-11-30T06:10:59.372Z,0.62
2023-11-30T06:13:26.101Z,0.63
2023-11-30T06:15:54.028Z,0.68
2023-11-30T06:18:20.655Z,0.64
2023-11-30T06:20:47.351Z,0.65
2023-11-30T06:23:13.910Z,0.63
2023-11-30T06:25:41.366Z,0.65
2023-11-30T06:28:07.833Z,0.65
2023-11-30T06:30:34.382Z,0.67
2023-11-30T06:33:00.887Z,0.69
2023-11-30T06:35:27.424Z,0.69
2023-11-30T06:37:53.827Z,0.68
2023-11-30T06:40:20.361Z,0.70
2023-11-30T06:42:46.797Z,0.67
2023-11-30T06:45:13.389Z,0.69
2023-11-30T06:47:42.200Z,0.67
2023-11-30T06:50:08.911Z,0.68
2023-11-30T06:52:35.413Z,0.67
2023-11-30T06:55:03.487Z,0.66
2023-11-30T06:57:30.792Z,0.64
2023-11-30T06:59:57.453Z,0.65
2023-11-30T07:02:24.353Z,0.65
2023-11-30T07:04:51.029Z,0.56
2023-11-30T07:07:27.864Z,0.54
2023-11-30T07:10:01.034Z,0.60
2023-11-30T07:12:28.340Z,0.52
2023-11-30T07:14:55.357Z,0.37
2023-11-30T07:17:25.072Z,0.34
2023-11-30T07:19:53.533Z,0.40
2023-11-30T07:22:21.524Z,0.44
2023-11-30T07:24:48.721Z,0.50
2023-11-30T07:27:19.121Z,0.53
2023-11-30T07:29:46.723Z,0.53
2023-11-30T07:32:16.485Z,0.47
2023-11-30T07:34:43.800Z,0.51
2023-11-30T07:37:10.265Z,0.56
2023-11-30T07:39:37.900Z,0.54
2023-11-30T07:42:07.588Z,0.60
2023-11-30T07:44:34.186Z,0.58
2023-11-30T07:47:01.100Z,0.57
2023-11-30T07:49:27.580Z,0.59
2023-11-30T07:51:53.984Z,0.59
2023-11-30T07:54:20.434Z,0.56
2023-11-30T07:56:55.659Z,0.55
2023-11-30T07:59:29.516Z,0.56
2023-11-30T08:01:56.360Z,0.56
2023-11-30T08:04:22.992Z,0.58
2023-11-30T08:06:49.841Z,0.57
2023-11-30T08:09:16.532Z,0.55
2023-11-30T08:11:43.213Z,0.57
2023-11-30T08:14:10.152Z,0.54
2023-11-30T08:16:41.646Z,0.48
2023-11-30T08:19:08.545Z,0.48
2023-11-30T08:21:37.119Z,0.52
2023-11-30T08:24:05.465Z,0.55
2023-11-30T08:26:31.964Z,0.62
2023-11-30T08:28:58.501Z,0.60
2023-11-30T08:31:25.060Z,0.58
2023-11-30T08:33:51.940Z,0.57
2023-11-30T08:36:18.707Z,0.57
2023-11-30T08:38:45.382Z,0.56
2023-11-30T08:41:14.180Z,0.56
2023-11-30T08:43:40.733Z,0.50
2023-11-30T08:46:07.708Z,0.38
2023-11-30T08:48:34.419Z,0.41
2023-11-30T08:51:01.001Z,0.44
2023-11-30T08:53:27.503Z,0.47
2023-11-30T08:55:54.102Z,0.48
2023-11-30T08:58:20.749Z,0.51
2023-11-30T09:00:47.361Z,0.54
2023-11-30T09:03:13.878Z,0.56
2023-11-30T09:05:41.828Z,0.58
2023-11-30T09:08:08.592Z,0.58
2023-11-30T09:10:35.373Z,0.53
2023-11-30T09:13:04.489Z,0.50
2023-11-30T09:15:32.067Z,0.51
2023-11-30T09:17:59.940Z,0.52
2023-11-30T09:20:29.455Z,0.57
2023-11-30T09:22:56.100Z,0.56
2023-11-30T09:25:23.055Z,0.62
2023-11-30T09:27:50.587Z,0.67
2023-11-30T09:30:17.765Z,0.72
2023-11-30T09:32:44.536Z,0.72
2023-11-30T09:35:12.528Z,0.76
2023-11-30T09:37:39.092Z,0.81
2023-11-30T09:40:06.752Z,0.83
2023-11-30T09:42:33.674Z,0.85
2023-11-30T09:45:01.683Z,0.89
2023-11-30T09:47:28.566Z,0.92
2023-11-30T09:49:55.536Z,0.92
2023-11-30T09:52:22.900Z,0.94
2023-11-30T09:54:54.218Z,0.98
2023-11-30T09:57:20.811Z,1.03
2023-11-30T09:59:47.368Z,1.07
2023-11-30T10:02:13.973Z,1.10
2023-11-30T10:04:41.421Z,1.17
2023-11-30T10:07:08.747Z,1.27
2023-11-30T10:09:36.940Z,1.34
2023-11-30T10:12:04.052Z,1.37
2023-11-30T10:14:30.838Z,1.35
2023-11-30T10:16:57.508Z,1.33
2023-11-30T10:19:24.330Z,1.36
2023-11-30T10:21:51.705Z,1.44
2023-11-30T10:24:18.537Z,1.48
2023-11-30T10:26:50.620Z,1.50
2023-11-30T10:29:19.696Z,1.53
2023-11-30T10:31:50.696Z,1.52
2023-11-30T10:34:29.615Z,1.51
2023-11-30T10:37:01.749Z,1.55
2023-11-30T10:39:36.913Z,1.58
2023-11-30T10:42:12.437Z,1.61
2023-11-30T10:44:41.719Z,1.62
2023-11-30T10:47:12.474Z,1.50
2023-11-30T10:49:39.989Z,1.46
2023-11-30T10:52:07.862Z,1.45
2023-11-30T10:55:08.024Z,1.46
2023-11-30T10:57:34.627Z,1.45
2023-11-30T11:00:01.322Z,1.46
2023-11-30T11:02:43.208Z,1.44
2023-11-30T11:05:17.087Z,1.46
2023-11-30T11:07:52.751Z,1.49
2023-11-30T11:10:26.066Z,1.55
2023-11-30T11:12:52.983Z,1.53
2023-11-30T11:15:22.210Z,1.49
2023-11-30T11:17:50.836Z,1.41
2023-11-30T11:20:26.731Z,1.31
2023-11-30T11:23:08.638Z,1.35
2023-11-30T11:25:47.567Z,1.44
2023-11-30T11:28:18.189Z,1.47
2023-11-30T11:30:49.660Z,1.59
2023-11-30T11:33:18.198Z,1.62
2023-11-30T11:35:45.101Z,1.66
2023-11-30T11:38:11.932Z,1.63
2023-11-30T11:40:40.669Z,1.61
2023-11-30T11:43:07.197Z,1.61
2023-11-30T11:45:34.551Z,1.59
2023-11-30T11:48:02.835Z,1.61
2023-11-30T11:50:29.868Z,1.64
2023-11-30T11:53:01.101Z,1.65
2023-11-30T11:55:27.854Z,1.59
2023-11-30T11:57:57.200Z,1.46
2023-11-30T12:00:25.569Z,1.39
2023-11-30T12:03:03.968Z,1.23
2023-11-30T12:05:30.590Z,1.18
2023-11-30T12:07:59.379Z,1.22
2023-11-30T12:10:26.809Z,1.18
2023-11-30T12:12:54.211Z,1.14
2023-11-30T12:15:20.984Z,1.14
2023-11-30T12:17:47.603Z,1.11
2023-11-30T12:20:15.166Z,1.08
2023-11-30T12:22:41.670Z,1.04
2023-11-30T12:25:08.508Z,0.75
2023-11-30T12:27:34.970Z,0.75
2023-11-30T12:30:01.600Z,0.96
2023-11-30T12:32:28.182Z,1.00
2023-11-30T12:34:57.560Z,1.08
2023-11-30T12:37:24.384Z,1.16
2023-11-30T12:39:50.883Z,1.07
2023-11-30T12:42:17.512Z,1.00
2023-11-30T12:44:44.471Z,1.07
2023-11-30T12:47:12.359Z,1.14
2023-11-30T12:49:39.459Z,1.11
2023-11-30T12:52:07.148Z,1.16
2023-11-30T12:54:33.768Z,1.17
2023-11-30T12:57:00.300Z,1.07
2023-11-30T12:59:26.757Z,1.11
2023-11-30T13:01:56.036Z,1.12
2023-11-30T13:04:23.912Z,1.15
2023-11-30T13:06:51.519Z,1.10
2023-11-30T13:09:18.254Z,1.07
2023-11-30T13:11:44.864Z,1.15
2023-11-30T13:14:11.766Z,1.19
2023-11-30T13:16:38.258Z,1.14
2023-11-30T13:19:05.180Z,1.16
2023-11-30T13:21:32.408Z,1.18
2023-11-30T13:23:58.972Z,1.16
2023-11-30T13:26:25.604Z,1.04
2023-11-30T13:28:52.912Z,1.01
2023-11-30T13:31:20.205Z,1.09
2023-11-30T13:33:46.810Z,1.05
2023-11-30T13:36:13.398Z,1.05
2023-11-30T13:38:41.904Z,1.10
2023-11-30T13:41:08.846Z,1.13
2023-11-30T13:43:35.470Z,1.12
2023-11-30T13:46:04.465Z,1.11
2023-11-30T13:48:31.317Z,1.10
2023-11-30T13:51:00.919Z,0.96
2023-11-30T13:53:29.418Z,0.89
2023-11-30T13:55:57.839Z,0.94
2023-11-30T13:58:25.504Z,0.98
2023-11-30T14:00:52.238Z,0.96
2023-11-30T14:03:18.928Z,0.86
2023-11-30T14:05:45.463Z,0.76
2023-11-30T14:08:11.967Z,0.70
2023-11-30T14:10:39.304Z,0.70
2023-11-30T14:13:06.692Z,0.60
2023-11-30T14:15:33.500Z,0.67
2023-11-30T14:18:00.111Z,0.72
2023-11-30T14:20:26.734Z,0.70
2023-11-30T14:22:53.217Z,0.74
2023-11-30T14:25:19.656Z,0.77
2023-11-30T14:27:46.601Z,0.83
2023-11-30T14:30:14.296Z,0.85
2023-11-30T14:32:41.476Z,0.86
2023-11-30T14:35:08.870Z,0.74
2023-11-30T14:37:35.624Z,0.72
2023-11-30T14:40:02.809Z,0.47
2023-11-30T14:42:29.393Z,0.29
2023-11-30T14:44:55.992Z,0.21
2023-11-30T14:47:26.856Z,0.41
2023-11-30T14:49:54.782Z,0.52
2023-11-30T14:52:21.298Z,0.58
2023-11-30T14:54:53.137Z,0.60
2023-11-30T14:57:20.836Z,0.57
2023-11-30T14:59:50.878Z,0.56
2023-11-30T15:02:17.497Z,0.57
2023-11-30T15:04:44.267Z,0.64
2023-11-30T15:07:10.929Z,0.70
2023-11-30T15:09:37.673Z,0.56
2023-11-30T15:12:07.271Z,0.54
2023-11-30T15:14:33.737Z,0.70
2023-11-30T15:17:00.326Z,0.77
2023-11-30T15:19:26.815Z,0.88
2023-11-30T15:21:53.374Z,0.71
2023-11-30T15:24:20.347Z,0.43
2023-11-30T15:26:46.779Z,0.45
2023-11-30T15:29:13.289Z,0.55
2023-11-30T15:31:39.764Z,0.75
2023-11-30T15:34:06.454Z,0.83
2023-11-30T15:36:34.566Z,0.88
2023-11-30T15:39:12.555Z,1.02
2023-11-30T15:41:44.822Z,1.01
2023-11-30T15:44:11.313Z,0.83
2023-11-30T15:46:38.100Z,0.95
2023-11-30T15:49:04.607Z,0.89
2023-11-30T15:51:31.140Z,0.78
2023-11-30T15:53:57.755Z,0.86
2023-11-30T15:56:24.280Z,1.02
2023-11-30T15:58:50.740Z,1.09
2023-11-30T16:01:18.611Z,1.09
2023-11-30T16:03:45.133Z,1.19
2023-11-30T16:06:12.079Z,1.26
2023-11-30T16:08:38.716Z,1.24
2023-11-30T16:11:13.088Z,0.95
2023-11-30T16:13:40.740Z,0.58
2023-11-30T16:16:07.847Z,0.70
2023-11-30T16:18:34.386Z,0.83
2023-11-30T16:21:00.851Z,0.94
2023-11-30T16:23:27.503Z,1.09
2023-11-30T16:25:54.033Z,1.17
2023-11-30T16:28:20.502Z,1.18
2023-11-30T16:30:47.099Z,1.16
2023-11-30T16:33:13.666Z,0.82
2023-11-30T16:35:40.238Z,0.66
2023-11-30T16:38:07.056Z,0.48
2023-11-30T16:40:33.550Z,0.56
2023-11-30T16:43:00.079Z,0.72
2023-11-30T16:45:27.720Z,0.80
2023-11-30T16:47:55.538Z,0.86
2023-11-30T16:50:22.010Z,0.86
2023-11-30T16:52:49.408Z,0.87
2023-11-30T16:55:16.140Z,0.86
2023-11-30T16:57:43.186Z,0.90
2023-11-30T17:00:10.349Z,0.64
2023-11-30T17:02:36.846Z,0.31
2023-11-30T17:05:03.640Z,0.15
2023-11-30T17:07:30.296Z,0.11
2023-11-30T17:09:56.759Z,0.14
2023-11-30T17:12:24.394Z,0.14
2023-11-30T17:14:50.843Z,0.03
2023-11-30T17:17:17.338Z,-0.04
2023-11-30T17:19:43.816Z,-0.18
2023-11-30T17:22:12.012Z,-0.14
2023-11-30T17:24:43.030Z,0.05
2023-11-30T17:27:12.625Z,0.13
2023-11-30T17:29:40.890Z,0.23
2023-11-30T17:32:08.025Z,0.39
2023-11-30T17:34:35.431Z,0.33
2023-11-30T17:37:02.234Z,0.37
2023-11-30T17:39:30.834Z,0.34
2023-11-30T17:41:58.050Z,0.36
2023-11-30T17:44:24.686Z,0.43
2023-11-30T17:46:53.261Z,0.41
2023-11-30T17:49:24.035Z,0.37
2023-11-30T17:51:52.484Z,0.40
2023-11-30T17:54:19.732Z,0.37
2023-11-30T17:56:46.373Z,0.33
2023-11-30T17:59:13.336Z,0.12
2023-11-30T18:01:40.088Z,0.03
2023-11-30T18:04:06.700Z,-0.10
2023-11-30T18:06:33.468Z,-0.20
2023-11-30T18:09:00.187Z,-0.22
2023-11-30T18:11:26.640Z,-0.20
2023-11-30T18:13:53.264Z,-0.01
2023-11-30T18:16:19.744Z,0.00
2023-11-30T18:18:47.180Z,-0.11
2023-11-30T18:21:13.934Z,-0.16
2023-11-30T18:23:40.607Z,0.01
2023-11-30T18:26:07.192Z,0.03
2023-11-30T18:28:33.900Z,0.05
2023-11-30T18:31:11.888Z,-0.10
2023-11-30T18:33:47.994Z,-0.08
2023-11-30T18:36:17.531Z,0.00
2023-11-30T18:38:50.795Z,0.05
2023-11-30T18:41:19.873Z,0.10
2023-11-30T18:43:49.124Z,-0.03
2023-11-30T18:46:16.757Z,-0.11
2023-11-30T18:48:44.357Z,-0.18
2023-11-30T18:51:11.498Z,-0.31
2023-11-30T18:53:40.639Z,-0.31
2023-11-30T18:56:07.806Z,-0.30
2023-11-30T18:58:34.328Z,-0.48
2023-11-30T19:01:05.136Z,-0.34
2023-11-30T19:03:33.051Z,-0.34
2023-11-30T19:05:59.836Z,-0.26
2023-11-30T19:08:26.465Z,-0.22
2023-11-30T19:10:53.213Z,-0.20
2023-11-30T19:13:19.693Z,-0.17
2023-11-30T19:15:46.489Z,-0.11
2023-11-30T19:18:15.394Z,-0.16
2023-11-30T19:20:45.219Z,-0.27
2023-11-30T19:23:16.507Z,-0.31
2023-11-30T19:25:43.872Z,-0.24
2023-11-30T19:28:15.655Z,-0.16
2023-11-30T19:30:45.902Z,-0.15
2023-11-30T19:33:14.862Z,-0.16
2023-11-30T19:35:43.980Z,-0.15
2023-11-30T19:38:20.603Z,-0.19
2023-11-30T19:40:48.583Z,-0.15
2023-11-30T19:43:26.465Z,-0.25
2023-11-30T19:46:03.632Z,-0.37
2023-11-30T19:48:31.678Z,-0.31
2023-11-30T19:51:27.643Z,-0.28
2023-11-30T19:54:08.425Z,-0.28
2023-11-30T19:56:42.163Z,-0.40
2023-11-30T19:59:41.635Z,-0.40
2023-11-30T20:02:07.558Z,-0.36
2023-11-30T20:04:46.789Z,-0.36
2023-11-30T20:07:18.245Z,-0.41
2023-11-30T20:09:46.573Z,-0.49
2023-11-30T20:12:13.352Z,-0.53
2023-11-30T20:14:42.058Z,-0.55
2023-11-30T20:17:21.288Z,-0.49
2023-11-30T20:19:49.039Z,-0.46
2023-11-30T20:22:20.401Z,-0.64
2023-11-30T20:24:57.805Z,-0.75
2023-11-30T20:27:28.116Z,-0.73
2023-11-30T20:30:06.965Z,-0.67
2023-11-30T20:32:44.153Z,-0.60
2023-11-30T20:35:11.189Z,-0.60
2023-11-30T20:37:37.829Z,-0.57
2023-11-30T20:40:04.996Z,-0.71
2023-11-30T20:42:31.635Z,-0.75
2023-11-30T20:44:58.234Z,-0.89
2023-11-30T20:47:25.765Z,-0.91
2023-11-30T20:49:53.192Z,-0.79
2023-11-30T20:52:34.533Z,-0.85
2023-11-30T20:55:08.737Z,-0.94
2023-11-30T20:58:12.104Z,-0.88
2023-11-30T21:00:40.995Z,-1.05
2023-11-30T21:03:48.213Z,-1.02
2023-11-30T21:06:14.046Z,-0.85
2023-11-30T21:08:40.657Z,-0.86
2023-11-30T21:11:07.484Z,-0.79
2023-11-30T21:14:26.519Z,-0.75
2023-11-30T21:16:25.209Z,-0.92
2023-11-30T21:18:51.898Z,-1.10
2023-11-30T21:21:18.550Z,-1.25
2023-11-30T21:23:45.006Z,-1.32
2023-11-30T21:26:28.056Z,-1.08
2023-11-30T21:29:01.597Z,-1.05
2023-11-30T21:31:28.227Z,-1.05
2023-11-30T21:33:54.958Z,-1.02
2023-11-30T21:36:21.848Z,-1.07
2023-11-30T21:38:48.329Z,-1.16
2023-11-30T21:41:16.603Z,-1.35
2023-11-30T21:43:43.967Z,-1.36
2023-11-30T21:46:11.964Z,-1.18
2023-11-30T21:48:38.736Z,-1.03
2023-11-30T21:51:05.849Z,-1.04
2023-11-30T21:53:35.628Z,-1.12
2023-11-30T21:56:02.697Z,-1.09
2023-11-30T21:58:29.473Z,-1.16
2023-11-30T22:00:56.342Z,-1.10
2023-11-30T22:03:23.770Z,-1.04
2023-11-30T22:05:51.843Z,-1.02
2023-11-30T22:08:18.397Z,-0.98
2023-11-30T22:10:46.689Z,-0.94
2023-11-30T22:13:13.282Z,-0.93
2023-11-30T22:15:40.052Z,-0.97
2023-11-30T22:18:06.735Z,-1.15
2023-11-30T22:20:33.269Z,-1.18
2023-11-30T22:22:59.867Z,-1.22
2023-11-30T22:25:26.488Z,-1.45
2023-11-30T22:27:53.190Z,-1.54
2023-11-30T22:30:19.787Z,-1.66
2023-11-30T22:32:46.289Z,-1.61
2023-11-30T22:35:15.673Z,-1.53
2023-11-30T22:37:42.219Z,-1.39
2023-11-30T22:40:09.248Z,-1.31
2023-11-30T22:42:36.311Z,-1.25
2023-11-30T22:45:05.699Z,-1.35
2023-11-30T22:47:32.468Z,-1.39
2023-11-30T22:49:58.946Z,-1.33
2023-11-30T22:52:26.990Z,-1.20
2023-11-30T22:54:53.745Z,-1.20
2023-11-30T22:57:20.367Z,-1.19
2023-11-30T22:59:46.972Z,-1.14
2023-11-30T23:02:13.606Z,-1.16
2023-11-30T23:04:40.491Z,-1.04
2023-11-30T23:07:07.883Z,-1.00
2023-11-30T23:09:34.600Z,-0.99
2023-11-30T23:12:01.340Z,-1.06
2023-11-30T23:14:30.257Z,-1.05
2023-11-30T23:16:56.648Z,-1.01
2023-11-30T23:19:23.356Z,-0.93
2023-11-30T23:21:49.912Z,-0.87
2023-11-30T23:24:23.292Z,-0.85
2023-11-30T23:26:55.398Z,-0.88
2023-11-30T23:29:22.363Z,-0.85
2023-11-30T23:31:50.142Z,-0.82
2023-11-30T23:34:16.675Z,-0.92
2023-11-30T23:36:43.344Z,-0.96
2023-11-30T23:39:09.854Z,-1.00
2023-11-30T23:41:36.385Z,-0.94
2023-11-30T23:44:02.846Z,-0.88
2023-11-30T23:46:31.047Z,-0.96
2023-11-30T23:48:58.475Z,-0.98
2023-11-30T23:51:24.978Z,-0.95
2023-11-30T23:53:52.007Z,-0.95
2023-11-30T23:56:18.534Z,-0.93
2023-11-30T23:58:45.036Z,-0.88
